»·PEaware :: N8233C KAVX-KSAN

N8233C :: KAVX-KSAN

FLIGHT INFORMATION

Flight Status: Arrived
Operator: Privately registered:
United States
More flights under this callsign
Pilot: Robert F. (22449)
Aircraft: CESSNA 172 SKYHAWK
(C172)
More flights by this aircraft type
Origin: KAVX Catalina
United States
Destination: KSAN San Diego Intl-Lindbergh
United States
More flights between these airports :: More routes between these airports
Route: SXC V208 OCN V23 MZB
File this flight plan on PilotEdge
Remarks: i-8
Altitude:
(Current/Filed)
5,000ft
Speed:
(Current/Filed)
105kts
Departed: 30-Dec-19 12:14 PM
Arrived: 30-Dec-19 02:02 PM
Distance/Time
Traveled:
74nm/1:48
Distance/Time
To Go:
Arrived

Flight Plot

Page will automatically refresh every two minutes.


Map Options




Map Legend


Flown Route
Filed Route
Departure Airport
Arrival Airport
Navaid (VOR, NDB)
Fix

Horizontal Profiles

Position Reports

Time Latitude Longitude Heading Altitude Ground
Speed
30-Dec-19 11:54 33.403814 -118.414564 262 1540ft 0kts
30-Dec-19 11:55 33.403814 -118.414564 262 1540ft 0kts
30-Dec-19 11:56 33.403814 -118.414564 262 1540ft 0kts
30-Dec-19 11:57 33.403814 -118.414564 262 1540ft 0kts
30-Dec-19 11:58 33.403814 -118.414564 262 1540ft 0kts
30-Dec-19 11:59 33.403814 -118.414564 262 1540ft 0kts
30-Dec-19 12:00 33.403814 -118.414564 262 1540ft 0kts
30-Dec-19 12:01 33.403814 -118.414564 262 1540ft 0kts
30-Dec-19 12:02 33.403814 -118.414564 262 1540ft 0kts
30-Dec-19 12:03 33.403814 -118.414564 262 1540ft 0kts
30-Dec-19 12:04 33.403814 -118.414564 262 1540ft 0kts
30-Dec-19 12:05 33.403894 -118.417404 268 1556ft 25kts
30-Dec-19 12:06 33.403494 -118.417470 101 1557ft 9kts
30-Dec-19 12:09 33.403257 -118.418010 235 1558ft 23kts
30-Dec-19 12:10 33.402736 -118.419592 51 1554ft 0kts
30-Dec-19 12:11 33.402749 -118.419572 51 1554ft 0kts
30-Dec-19 12:12 33.402762 -118.419553 51 1554ft 0kts
30-Dec-19 12:13 33.404272 -118.416995 56 1555ft 62kts
30-Dec-19 12:14 33.413180 -118.405628 53 2055ft 74kts
30-Dec-19 12:15 33.425078 -118.403079 308 2550ft 97kts
30-Dec-19 12:16 33.415880 -118.414883 178 3081ft 82kts
30-Dec-19 12:17 33.400825 -118.418268 180 3596ft 83kts
30-Dec-19 12:18 33.390848 -118.420147 180 3930ft 83kts
30-Dec-19 12:20 33.374372 -118.422558 158 4427ft 83kts
30-Dec-19 12:21 33.369275 -118.409159 92 4882ft 75kts
30-Dec-19 12:22 33.369396 -118.391839 93 5009ft 102kts
30-Dec-19 12:23 33.368273 -118.379503 98 5001ft 103kts
30-Dec-19 12:24 33.366031 -118.359060 98 5001ft 101kts
30-Dec-19 12:25 33.363705 -118.338809 100 5001ft 101kts
30-Dec-19 12:26 33.360888 -118.318887 100 5001ft 100kts
30-Dec-19 12:27 33.358282 -118.299407 99 5001ft 98kts
30-Dec-19 12:28 33.355968 -118.280512 98 5003ft 97kts
30-Dec-19 12:29 33.353786 -118.261912 98 5004ft 97kts
30-Dec-19 12:30 33.351562 -118.243451 98 5004ft 97kts
30-Dec-19 12:31 33.349274 -118.224999 98 5005ft 97kts
30-Dec-19 12:32 33.346672 -118.206596 99 5006ft 98kts
30-Dec-19 12:33 33.344013 -118.188193 98 5007ft 98kts
30-Dec-19 12:34 33.341290 -118.169544 98 5007ft 98kts
30-Dec-19 12:35 33.338529 -118.150784 98 5008ft 98kts
30-Dec-19 12:36 33.335711 -118.131753 98 5008ft 98kts
30-Dec-19 12:37 33.332831 -118.112375 98 5008ft 98kts
30-Dec-19 12:38 33.329968 -118.093054 98 5009ft 98kts
30-Dec-19 12:39 33.327374 -118.073584 97 5009ft 98kts
30-Dec-19 12:40 33.324717 -118.053621 97 5009ft 98kts
30-Dec-19 12:41 33.322024 -118.033591 97 5010ft 98kts
30-Dec-19 12:42 33.317948 -118.013355 109 5011ft 99kts
30-Dec-19 12:43 33.309504 -117.993434 115 5011ft 100kts
30-Dec-19 12:44 33.300540 -117.974294 115 5011ft 99kts
30-Dec-19 12:45 33.291621 -117.955296 115 5011ft 99kts
30-Dec-19 12:46 33.282672 -117.936302 115 5011ft 99kts
30-Dec-19 12:47 33.273677 -117.917311 115 5012ft 99kts
30-Dec-19 12:48 33.264486 -117.898069 115 5014ft 99kts
30-Dec-19 12:49 33.255216 -117.878817 115 5015ft 99kts
30-Dec-19 12:50 33.245897 -117.859608 115 5017ft 100kts
30-Dec-19 12:51 33.236532 -117.840431 115 5018ft 100kts
30-Dec-19 12:52 33.227113 -117.821199 114 5018ft 100kts
30-Dec-19 12:53 33.215940 -117.798228 115 5005ft 102kts
30-Dec-19 12:54 33.207460 -117.779965 114 5000ft 102kts
30-Dec-19 12:55 33.198962 -117.761605 114 5000ft 102kts
30-Dec-19 12:56 33.190551 -117.743396 114 5000ft 102kts
30-Dec-19 12:57 33.182120 -117.725109 114 5000ft 102kts
30-Dec-19 12:58 33.173711 -117.706846 114 5000ft 102kts
30-Dec-19 12:59 33.165341 -117.688628 114 5000ft 102kts
30-Dec-19 13:00 33.156984 -117.670407 114 5000ft 102kts
30-Dec-19 13:01 33.148677 -117.652253 114 5000ft 102kts
30-Dec-19 13:02 33.140517 -117.634398 114 5000ft 102kts
30-Dec-19 13:03 33.132475 -117.616763 114 5000ft 102kts
30-Dec-19 13:04 33.124434 -117.599061 114 5003ft 109kts
30-Dec-19 13:05 33.115666 -117.579452 114 5000ft 120kts
30-Dec-19 13:07 33.106499 -117.558935 114 4999ft 123kts
30-Dec-19 13:08 33.097223 -117.538259 114 4998ft 124kts
30-Dec-19 13:09 33.087699 -117.517111 114 4997ft 124kts
30-Dec-19 13:10 33.078682 -117.497156 113 4996ft 125kts
30-Dec-19 13:11 33.070176 -117.478380 113 4996ft 125kts
30-Dec-19 13:12 33.061799 -117.459931 113 4995ft 126kts
30-Dec-19 13:13 33.052828 -117.440201 113 4994ft 127kts
30-Dec-19 13:14 33.046737 -117.426810 113 4994ft 127kts
30-Dec-19 13:15 33.045636 -117.424388 113 4994ft 127kts
30-Dec-19 13:16 33.037434 -117.406358 113 4993ft 128kts
30-Dec-19 13:17 33.029662 -117.388785 113 5042ft 127kts
30-Dec-19 13:18 33.020132 -117.367910 113 5044ft 128kts
30-Dec-19 13:19 33.010427 -117.346621 114 5044ft 129kts
30-Dec-19 13:20 32.999919 -117.323468 114 5045ft 129kts
30-Dec-19 13:21 32.985845 -117.304591 149 5044ft 135kts
30-Dec-19 13:22 32.969771 -117.298621 166 5045ft 137kts
30-Dec-19 13:23 32.950411 -117.294494 166 5045ft 136kts
30-Dec-19 13:24 32.930477 -117.288347 156 5045ft 134kts
30-Dec-19 13:25 32.911483 -117.280281 154 5045ft 133kts
30-Dec-19 13:26 32.893085 -117.272111 155 5043ft 132kts
30-Dec-19 13:27 32.874814 -117.264234 155 5043ft 131kts
30-Dec-19 13:28 32.857435 -117.256750 155 5044ft 130kts
30-Dec-19 13:28 32.843757 -117.250485 144 5039ft 127kts
30-Dec-19 13:30 32.835530 -117.228474 102 5044ft 121kts
30-Dec-19 13:30 32.831064 -117.210148 104 5043ft 122kts
30-Dec-19 13:31 32.825492 -117.188304 104 5043ft 122kts
30-Dec-19 13:32 32.819868 -117.166350 104 5043ft 123kts
30-Dec-19 13:33 32.814267 -117.144571 104 5043ft 124kts
30-Dec-19 13:34 32.808635 -117.122723 104 5043ft 125kts
30-Dec-19 13:35 32.802922 -117.100479 104 5044ft 125kts
30-Dec-19 13:36 32.797255 -117.078067 104 5046ft 125kts
30-Dec-19 13:37 32.791704 -117.055739 104 5048ft 125kts
30-Dec-19 13:38 32.786267 -117.033497 104 5049ft 125kts
30-Dec-19 13:39 32.780892 -117.011109 104 5050ft 124kts
30-Dec-19 13:40 32.775576 -116.988540 104 5051ft 124kts
30-Dec-19 13:41 32.770375 -116.965970 104 5052ft 124kts
30-Dec-19 13:42 32.765305 -116.943489 104 5053ft 124kts
30-Dec-19 13:43 32.760452 -116.921493 104 5053ft 124kts
30-Dec-19 13:44 32.752857 -116.902014 147 5048ft 126kts
30-Dec-19 13:45 32.736782 -116.896605 164 5051ft 127kts
30-Dec-19 13:46 32.717558 -116.891536 164 4706ft 141kts
30-Dec-19 13:47 32.696717 -116.890888 209 4258ft 149kts
30-Dec-19 13:48 32.687580 -116.917793 254 3814ft 153kts
30-Dec-19 13:49 32.682579 -116.945413 254 3850ft 141kts
30-Dec-19 13:50 32.681091 -116.972736 292 3774ft 147kts
30-Dec-19 13:51 32.689023 -117.001405 285 3478ft 147kts
30-Dec-19 13:52 32.695655 -117.030130 285 3007ft 130kts
30-Dec-19 13:53 32.700641 -117.053429 277 2480ft 104kts
30-Dec-19 13:54 32.706030 -117.072938 283 2130ft 93kts
30-Dec-19 13:55 32.710795 -117.093061 280 1662ft 102kts
30-Dec-19 13:56 32.715297 -117.113911 283 1143ft 99kts
30-Dec-19 13:57 32.720229 -117.133514 283 722ft 86kts
30-Dec-19 13:58 32.724204 -117.149880 281 714ft 78kts
30-Dec-19 13:59 32.728439 -117.166475 286 387ft 80kts
30-Dec-19 14:00 32.731888 -117.181849 275 30ft 60kts
30-Dec-19 14:01 32.733800 -117.188099 6 17ft 12kts
30-Dec-19 14:02 32.733978 -117.188059 14 17ft 0kts
30-Dec-19 14:03 32.734331 -117.187129 12 17ft 0kts

Navigation Log

Ident Type
Flight plan parsing failed, navigation log unavailable